createdAt,value
2023-04-16T00:01:43.257Z,9.60
2023-04-16T00:04:16.842Z,9.60
2023-04-16T00:06:50.630Z,9.60
2023-04-16T00:09:23.436Z,9.60
2023-04-16T00:11:56.980Z,9.60
2023-04-16T00:14:30.497Z,9.60
2023-04-16T00:17:03.754Z,9.60
2023-04-16T00:19:36.680Z,9.60
2023-04-16T00:22:09.700Z,9.50
2023-04-16T00:24:42.441Z,9.50
2023-04-16T00:27:15.509Z,9.50
2023-04-16T00:29:48.269Z,9.50
2023-04-16T00:32:21.226Z,9.50
2023-04-16T00:34:53.889Z,9.50
2023-04-16T00:37:27.399Z,9.50
2023-04-16T00:40:00.165Z,9.50
2023-04-16T00:42:33.105Z,9.50
2023-04-16T00:45:06.506Z,9.50
2023-04-16T00:47:39.742Z,9.50
2023-04-16T00:50:12.659Z,9.50
2023-04-16T00:52:48.641Z,9.50
2023-04-16T00:55:21.574Z,9.50
2023-04-16T00:57:54.394Z,9.50
2023-04-16T01:00:27.052Z,9.50
2023-04-16T01:03:00.545Z,9.50
2023-04-16T01:05:33.319Z,9.50
2023-04-16T01:08:06.734Z,9.50
2023-04-16T01:10:39.488Z,9.50
2023-04-16T01:13:13.130Z,9.50
2023-04-16T01:15:45.995Z,9.50
2023-04-16T01:18:21.224Z,9.40
2023-04-16T01:20:54.010Z,9.50
2023-04-16T01:23:26.982Z,9.50
2023-04-16T01:25:59.709Z,9.50
2023-04-16T01:28:33.102Z,9.50
2023-04-16T01:31:06.056Z,9.40
2023-04-16T01:33:39.294Z,9.50
2023-04-16T01:36:11.873Z,9.40
2023-04-16T01:38:44.864Z,9.40
2023-04-16T01:41:17.500Z,9.30
2023-04-16T01:43:50.483Z,9.40
2023-04-16T01:46:31.774Z,9.40
2023-04-16T01:49:06.039Z,9.40
2023-04-16T01:51:38.686Z,9.40
2023-04-16T01:54:11.695Z,9.40
2023-04-16T01:56:44.278Z,9.40
2023-04-16T01:59:17.696Z,9.30
2023-04-16T02:01:50.629Z,9.40
2023-04-16T02:04:23.947Z,9.40
2023-04-16T02:06:56.687Z,9.40
2023-04-16T02:09:29.683Z,9.40
2023-04-16T02:12:03.394Z,9.40
2023-04-16T02:14:36.302Z,9.40
2023-04-16T02:17:09.560Z,9.30
2023-04-16T02:19:42.861Z,9.30
2023-04-16T02:22:15.557Z,9.40
2023-04-16T02:24:49.918Z,9.40
2023-04-16T02:27:22.509Z,9.40
2023-04-16T02:29:55.456Z,9.40
2023-04-16T02:32:28.222Z,9.40
2023-04-16T02:35:04.099Z,9.40
2023-04-16T02:37:36.830Z,9.30
2023-04-16T02:40:10.695Z,9.30
2023-04-16T02:42:43.540Z,9.40
2023-04-16T02:45:17.038Z,9.30
2023-04-16T02:47:50.561Z,9.40
2023-04-16T02:50:23.628Z,9.40
2023-04-16T02:52:56.513Z,9.30
2023-04-16T02:55:29.690Z,9.40
2023-04-16T02:58:02.624Z,9.40
2023-04-16T03:00:35.777Z,9.30
2023-04-16T03:03:08.796Z,9.30
2023-04-16T03:05:42.167Z,9.30
2023-04-16T03:08:15.054Z,9.30
2023-04-16T03:10:48.340Z,9.30
2023-04-16T03:13:21.123Z,9.30
2023-04-16T03:15:54.584Z,9.30
2023-04-16T03:18:27.405Z,9.30
2023-04-16T03:21:00.694Z,9.30
2023-04-16T03:23:33.666Z,9.30
2023-04-16T03:26:06.692Z,9.30
2023-04-16T03:28:39.265Z,9.30
2023-04-16T03:31:12.498Z,9.30
2023-04-16T03:33:45.971Z,9.30
2023-04-16T03:36:19.171Z,9.30
2023-04-16T03:38:51.843Z,9.30
2023-04-16T03:41:24.895Z,9.30
2023-04-16T03:43:57.589Z,9.30
2023-04-16T03:46:30.984Z,9.30
2023-04-16T03:49:03.685Z,9.30
2023-04-16T03:51:36.650Z,9.30
2023-04-16T03:54:09.332Z,9.20
2023-04-16T03:56:42.523Z,9.30
2023-04-16T03:59:15.333Z,9.30
2023-04-16T04:01:48.547Z,9.30
2023-04-16T04:04:21.414Z,9.20
2023-04-16T04:06:54.436Z,9.30
2023-04-16T04:09:27.362Z,9.30
2023-04-16T04:12:01.176Z,9.20
2023-04-16T04:14:33.916Z,9.20
2023-04-16T04:17:08.245Z,9.30
2023-04-16T04:19:47.253Z,9.30
2023-04-16T04:22:27.623Z,9.30
2023-04-16T04:25:00.476Z,9.30
2023-04-16T04:27:33.545Z,9.30
2023-04-16T04:30:06.923Z,9.30
2023-04-16T04:32:40.085Z,9.30
2023-04-16T04:35:12.804Z,9.30
2023-04-16T04:37:46.174Z,9.30
2023-04-16T04:40:18.917Z,9.30
2023-04-16T04:42:51.855Z,9.20
2023-04-16T04:45:25.695Z,9.30
2023-04-16T04:47:58.743Z,9.20
2023-04-16T04:50:31.393Z,9.20
2023-04-16T04:53:10.014Z,9.20
2023-04-16T04:55:42.678Z,9.30
2023-04-16T04:58:15.720Z,9.30
2023-04-16T05:00:48.496Z,9.30
2023-04-16T05:03:22.144Z,9.30
2023-04-16T05:05:54.910Z,9.30
2023-04-16T05:08:28.370Z,9.30
2023-04-16T05:11:01.605Z,9.40
2023-04-16T05:13:34.580Z,9.40
2023-04-16T05:16:07.711Z,9.40
2023-04-16T05:18:40.919Z,9.40
2023-04-16T05:21:13.564Z,9.50
2023-04-16T05:23:46.728Z,9.40
2023-04-16T05:26:19.396Z,9.50
2023-04-16T05:28:52.372Z,9.40
2023-04-16T05:31:24.973Z,9.40
2023-04-16T05:33:58.071Z,9.40
2023-04-16T05:36:30.587Z,9.40
2023-04-16T05:39:03.628Z,9.50
2023-04-16T05:41:36.136Z,9.50
2023-04-16T05:44:08.905Z,9.50
2023-04-16T05:46:41.385Z,9.50
2023-04-16T05:49:14.256Z,9.40
2023-04-16T05:51:47.375Z,9.40
2023-04-16T05:54:20.183Z,9.40
2023-04-16T05:56:52.681Z,9.40
2023-04-16T05:59:25.675Z,9.40
2023-04-16T06:01:58.336Z,9.40
2023-04-16T06:04:31.596Z,9.40
2023-04-16T06:07:04.133Z,9.50
2023-04-16T06:09:36.890Z,9.50
2023-04-16T06:12:09.950Z,9.50
2023-04-16T06:14:42.701Z,9.50
2023-04-16T06:17:15.628Z,9.50
2023-04-16T06:19:48.649Z,9.50
2023-04-16T06:22:21.179Z,9.50
2023-04-16T06:24:54.179Z,9.50
2023-04-16T06:27:27.211Z,9.50
2023-04-16T06:29:59.992Z,9.60
2023-04-16T06:32:32.516Z,9.50
2023-04-16T06:35:06.042Z,9.50
2023-04-16T06:37:38.813Z,9.60
2023-04-16T06:40:12.238Z,9.60
2023-04-16T06:42:45.632Z,9.60
2023-04-16T06:45:18.722Z,9.60
2023-04-16T06:47:55.063Z,9.70
2023-04-16T06:50:30.706Z,9.70
2023-04-16T06:53:03.765Z,9.70
2023-04-16T06:55:36.551Z,9.80
2023-04-16T06:58:09.053Z,9.80
2023-04-16T07:00:41.865Z,9.80
2023-04-16T07:03:14.826Z,9.80
2023-04-16T07:05:47.665Z,9.80
2023-04-16T07:08:20.303Z,9.80
2023-04-16T07:10:53.930Z,9.80
2023-04-16T07:13:26.560Z,9.80
2023-04-16T07:15:59.318Z,9.80
2023-04-16T07:18:31.979Z,9.80
2023-04-16T07:21:04.837Z,9.80
2023-04-16T07:23:39.895Z,9.80
2023-04-16T07:26:25.507Z,9.90
2023-04-16T07:29:07.153Z,9.90
2023-04-16T07:31:50.211Z,9.90
2023-04-16T07:34:26.734Z,10.00
2023-04-16T07:36:59.528Z,10.00
2023-04-16T07:39:32.030Z,10.10
2023-04-16T07:42:17.043Z,10.00
2023-04-16T07:45:01.788Z,10.00
2023-04-16T07:47:39.886Z,10.00
2023-04-16T07:50:13.277Z,10.10
2023-04-16T07:52:46.993Z,10.10
2023-04-16T07:55:19.874Z,10.10
2023-04-16T07:57:52.634Z,10.10
2023-04-16T08:00:25.189Z,10.00
2023-04-16T08:02:58.204Z,10.10
2023-04-16T08:05:30.915Z,10.10
2023-04-16T08:08:03.755Z,10.10
2023-04-16T08:10:36.284Z,10.10
2023-04-16T08:13:09.082Z,10.10
2023-04-16T08:15:41.855Z,10.10
2023-04-16T08:18:15.773Z,10.10
2023-04-16T08:20:48.314Z,10.20
2023-04-16T08:23:21.298Z,10.10
2023-04-16T08:25:54.446Z,10.10
2023-04-16T08:28:27.273Z,10.10
2023-04-16T08:30:59.855Z,10.00
2023-04-16T08:33:32.659Z,10.10
2023-04-16T08:36:05.602Z,10.20
2023-04-16T08:38:38.468Z,10.30
2023-04-16T08:41:13.184Z,10.20
2023-04-16T08:43:50.555Z,10.30
2023-04-16T08:46:24.980Z,10.40
2023-04-16T08:49:01.130Z,10.40
2023-04-16T08:51:38.515Z,10.50
2023-04-16T08:54:15.069Z,10.60
2023-04-16T08:56:48.765Z,10.90
2023-04-16T08:59:22.468Z,11.00
2023-04-16T09:01:59.585Z,11.10
2023-04-16T09:04:33.884Z,11.20
2023-04-16T09:07:08.905Z,11.30
2023-04-16T09:09:44.222Z,11.40
2023-04-16T09:12:18.034Z,11.40
2023-04-16T09:14:54.075Z,11.40
2023-04-16T09:17:27.399Z,11.60
2023-04-16T09:20:00.688Z,11.60
2023-04-16T09:22:33.492Z,11.70
2023-04-16T09:25:07.571Z,11.70
2023-04-16T09:27:40.551Z,11.80
2023-04-16T09:30:25.691Z,11.80
2023-04-16T09:33:12.759Z,11.80
2023-04-16T09:35:50.290Z,11.80
2023-04-16T09:38:23.156Z,11.90
2023-04-16T09:41:09.004Z,12.10
2023-04-16T09:43:41.961Z,12.30
2023-04-16T09:46:15.128Z,12.30
2023-04-16T09:48:48.032Z,12.40
2023-04-16T09:51:21.121Z,12.40
2023-04-16T09:53:54.993Z,12.40
2023-04-16T09:56:28.058Z,12.40
2023-04-16T09:59:01.173Z,12.40
2023-04-16T10:01:34.193Z,12.30
2023-04-16T10:04:07.319Z,12.30
2023-04-16T10:06:40.575Z,12.30
2023-04-16T10:09:16.270Z,12.30
2023-04-16T10:11:50.617Z,12.30
2023-04-16T10:14:23.604Z,12.40
2023-04-16T10:16:56.643Z,12.40
2023-04-16T10:19:31.699Z,12.50
2023-04-16T10:22:05.154Z,12.60
2023-04-16T10:24:38.406Z,12.70
2023-04-16T10:27:11.396Z,12.80
2023-04-16T10:29:44.764Z,12.80
2023-04-16T10:32:19.159Z,12.80
2023-04-16T10:34:51.950Z,12.90
2023-04-16T10:37:32.289Z,12.90
2023-04-16T10:40:26.189Z,13.00
2023-04-16T10:43:00.158Z,13.10
2023-04-16T10:45:38.204Z,13.10
2023-04-16T10:48:17.230Z,13.10
2023-04-16T10:50:57.939Z,13.10
2023-04-16T10:53:31.046Z,13.10
2023-04-16T10:56:04.513Z,13.00
2023-04-16T10:58:37.746Z,12.90
2023-04-16T11:01:16.517Z,12.90
2023-04-16T11:03:49.810Z,12.80
2023-04-16T11:06:27.148Z,12.70
2023-04-16T11:09:03.261Z,12.60
2023-04-16T11:11:39.807Z,12.60
2023-04-16T11:14:13.548Z,12.60
2023-04-16T11:16:46.741Z,12.60
2023-04-16T11:19:19.807Z,12.60
2023-04-16T11:21:52.663Z,12.60
2023-04-16T11:24:31.246Z,12.50
2023-04-16T11:27:05.306Z,12.50
2023-04-16T11:29:38.346Z,12.50
2023-04-16T11:32:11.338Z,12.50
2023-04-16T11:34:47.715Z,12.40
2023-04-16T11:37:22.398Z,12.30
2023-04-16T11:39:56.844Z,12.30
2023-04-16T11:42:30.011Z,12.20
2023-04-16T11:45:03.994Z,12.20
2023-04-16T11:48:03.093Z,12.20
2023-04-16T11:50:36.200Z,12.20
2023-04-16T11:53:09.049Z,12.10
2023-04-16T11:55:46.159Z,12.10
2023-04-16T11:58:20.225Z,12.00
2023-04-16T12:00:57.048Z,12.00
2023-04-16T12:03:46.018Z,12.00
2023-04-16T12:06:23.299Z,12.00
2023-04-16T12:08:59.769Z,11.90
2023-04-16T12:11:42.794Z,11.80
2023-04-16T12:14:20.462Z,11.70
2023-04-16T12:16:57.885Z,11.70
2023-04-16T12:19:33.680Z,11.70
2023-04-16T12:22:09.652Z,11.70
2023-04-16T12:24:42.691Z,11.70
2023-04-16T12:27:16.604Z,11.80
2023-04-16T12:30:06.916Z,11.90
2023-04-16T12:32:43.113Z,12.00
2023-04-16T12:35:31.692Z,12.10
2023-04-16T12:38:10.732Z,12.20
2023-04-16T12:40:49.592Z,12.30
2023-04-16T12:43:23.526Z,12.30
2023-04-16T12:45:56.390Z,12.40
2023-04-16T12:48:29.608Z,12.50
2023-04-16T12:51:05.827Z,12.60
2023-04-16T12:53:39.176Z,12.60
2023-04-16T12:56:12.106Z,12.60
2023-04-16T12:58:45.551Z,12.60
2023-04-16T13:01:22.417Z,12.50
2023-04-16T13:03:55.783Z,12.40
2023-04-16T13:06:28.909Z,12.30
2023-04-16T13:09:02.568Z,12.30
2023-04-16T13:11:35.770Z,12.20
2023-04-16T13:14:09.243Z,12.10
2023-04-16T13:16:42.368Z,12.00
2023-04-16T13:19:17.160Z,12.00
2023-04-16T13:21:49.973Z,11.90
2023-04-16T13:24:24.053Z,11.90
2023-04-16T13:26:56.949Z,11.80
2023-04-16T13:29:32.573Z,11.70
2023-04-16T13:32:07.002Z,11.70
2023-04-16T13:34:40.433Z,11.60
2023-04-16T13:37:13.222Z,11.60
2023-04-16T13:39:46.720Z,11.60
2023-04-16T13:42:19.596Z,11.50
2023-04-16T13:44:55.100Z,11.40
2023-04-16T13:47:28.108Z,11.40
2023-04-16T13:50:01.263Z,11.40
2023-04-16T13:52:34.289Z,11.30
2023-04-16T13:55:09.759Z,11.40
2023-04-16T13:57:42.536Z,11.40
2023-04-16T14:00:16.881Z,11.40
2023-04-16T14:02:50.254Z,11.40
2023-04-16T14:05:26.502Z,11.40
2023-04-16T14:08:00.090Z,11.40
2023-04-16T14:10:33.311Z,11.40
2023-04-16T14:13:06.397Z,11.40
2023-04-16T14:15:41.898Z,11.40
2023-04-16T14:18:14.681Z,11.40
2023-04-16T14:20:48.179Z,11.50
2023-04-16T14:23:21.109Z,11.50
2023-04-16T14:25:55.360Z,11.50
2023-04-16T14:28:28.561Z,11.50
2023-04-16T14:31:02.183Z,11.50
2023-04-16T14:33:35.209Z,11.40
2023-04-16T14:36:08.611Z,11.40
2023-04-16T14:38:43.444Z,11.40
2023-04-16T14:41:16.893Z,11.40
2023-04-16T14:43:49.718Z,11.40
2023-04-16T14:46:22.957Z,11.40
2023-04-16T14:48:58.818Z,11.40
2023-04-16T14:51:31.997Z,11.40
2023-04-16T14:54:04.880Z,11.40
2023-04-16T14:56:38.213Z,11.40
2023-04-16T14:59:11.197Z,11.40
2023-04-16T15:01:46.525Z,11.40
2023-04-16T15:04:20.052Z,11.40
2023-04-16T15:09:28.254Z,11.40
2023-04-16T15:12:04.496Z,11.40
2023-04-16T15:14:37.486Z,11.50
2023-04-16T15:17:10.790Z,11.40
2023-04-16T15:19:43.707Z,11.40
2023-04-16T15:22:16.972Z,11.40
2023-04-16T15:24:50.888Z,11.40
2023-04-16T15:27:24.536Z,11.30
2023-04-16T15:29:57.652Z,11.30
2023-04-16T15:32:31.686Z,11.30
2023-04-16T15:35:05.152Z,11.30
2023-04-16T15:37:40.096Z,11.20
2023-04-16T15:40:13.009Z,11.20
2023-04-16T15:42:46.246Z,11.20
2023-04-16T15:45:19.049Z,11.10
2023-04-16T15:47:52.301Z,11.20
2023-04-16T15:50:26.165Z,11.10
2023-04-16T15:52:59.650Z,11.10
2023-04-16T15:55:35.984Z,11.10
2023-04-16T15:58:15.632Z,11.10
2023-04-16T16:00:50.091Z,11.10
2023-04-16T16:03:23.892Z,11.10
2023-04-16T16:05:59.361Z,11.10
2023-04-16T16:08:35.858Z,11.10
2023-04-16T16:11:08.671Z,11.10
2023-04-16T16:13:41.973Z,11.10
2023-04-16T16:16:14.982Z,11.00
2023-04-16T16:18:48.134Z,10.90
2023-04-16T16:21:21.126Z,10.80
2023-04-16T16:23:54.358Z,10.80
2023-04-16T16:26:27.285Z,10.80
2023-04-16T16:29:01.217Z,10.80
2023-04-16T16:31:34.169Z,10.70
2023-04-16T16:34:07.600Z,10.70
2023-04-16T16:36:40.495Z,10.70
2023-04-16T16:39:14.154Z,10.60
2023-04-16T16:41:52.260Z,10.60
2023-04-16T16:44:26.990Z,10.50
2023-04-16T16:47:00.112Z,10.50
2023-04-16T16:49:33.253Z,10.40
2023-04-16T16:52:06.054Z,10.40
2023-04-16T16:54:39.163Z,10.40
2023-04-16T16:57:13.164Z,10.30
2023-04-16T16:59:48.630Z,10.30
2023-04-16T17:02:21.956Z,10.30
2023-04-16T17:04:55.136Z,10.30
2023-04-16T17:07:27.917Z,10.30
2023-04-16T17:10:03.683Z,10.30
2023-04-16T17:12:37.746Z,10.20
2023-04-16T17:15:11.524Z,10.20
2023-04-16T17:17:44.530Z,10.20
2023-04-16T17:20:17.700Z,10.20
2023-04-16T17:22:51.372Z,10.20
2023-04-16T17:25:24.615Z,10.20
2023-04-16T17:27:57.772Z,10.10
2023-04-16T17:30:31.862Z,10.10
2023-04-16T17:33:04.810Z,10.00
2023-04-16T17:35:41.210Z,10.00
2023-04-16T17:38:14.075Z,9.90
2023-04-16T17:40:49.646Z,9.90
2023-04-16T17:43:22.529Z,9.80
2023-04-16T17:45:55.850Z,9.80
2023-04-16T17:48:30.881Z,9.80
2023-04-16T17:51:13.536Z,9.80
2023-04-16T17:53:46.063Z,9.80
2023-04-16T17:56:18.928Z,9.70
2023-04-16T17:59:16.585Z,9.80
2023-04-16T18:01:49.822Z,9.70
2023-04-16T18:04:28.232Z,9.80
2023-04-16T18:07:01.492Z,9.70
2023-04-16T18:09:37.333Z,9.80
2023-04-16T18:12:10.593Z,9.70
2023-04-16T18:14:44.857Z,9.80
2023-04-16T18:17:18.090Z,9.80
2023-04-16T18:19:50.710Z,9.80
2023-04-16T18:22:25.650Z,9.70
2023-04-16T18:25:00.498Z,9.70
2023-04-16T18:27:39.664Z,9.70
2023-04-16T18:30:22.044Z,9.70
2023-04-16T18:35:34.170Z,9.70
2023-04-16T18:38:07.565Z,9.70
2023-04-16T18:40:41.721Z,9.70
2023-04-16T18:43:26.305Z,9.70
2023-04-16T18:45:59.114Z,9.70
2023-04-16T18:48:33.248Z,9.70
2023-04-16T18:51:06.926Z,9.70
2023-04-16T18:53:42.317Z,9.70
2023-04-16T18:56:15.032Z,9.70
2023-04-16T18:58:50.366Z,9.70
2023-04-16T19:01:27.614Z,9.70
2023-04-16T19:04:01.803Z,9.60
2023-04-16T19:06:34.597Z,9.70
2023-04-16T19:09:09.478Z,9.70
2023-04-16T19:11:43.647Z,9.60
2023-04-16T19:14:16.885Z,9.60
2023-04-16T19:16:49.540Z,9.60
2023-04-16T19:19:22.551Z,9.60
2023-04-16T19:21:55.537Z,9.60
2023-04-16T19:24:28.628Z,9.60
2023-04-16T19:27:02.731Z,9.60
2023-04-16T19:29:35.918Z,9.60
2023-04-16T19:32:08.794Z,9.60
2023-04-16T19:34:42.205Z,9.60
2023-04-16T19:37:15.256Z,9.60
2023-04-16T19:39:49.499Z,9.50
2023-04-16T19:42:25.281Z,9.60
2023-04-16T19:44:58.641Z,9.60
2023-04-16T19:47:31.343Z,9.50
2023-04-16T19:50:06.876Z,9.60
2023-04-16T19:52:39.535Z,9.60
2023-04-16T19:55:13.228Z,9.50
2023-04-16T19:57:48.177Z,9.60
2023-04-16T20:00:21.297Z,9.60
2023-04-16T20:02:54.186Z,9.50
2023-04-16T20:05:29.252Z,9.50
2023-04-16T20:08:02.022Z,9.50
2023-04-16T20:10:35.052Z,9.50
2023-04-16T20:13:11.930Z,9.40
2023-04-16T20:15:44.856Z,9.40
2023-04-16T20:18:18.210Z,9.40
2023-04-16T20:20:51.203Z,9.50
2023-04-16T20:23:23.774Z,9.40
2023-04-16T20:25:56.666Z,9.40
2023-04-16T20:28:29.455Z,9.40
2023-04-16T20:31:02.354Z,9.30
2023-04-16T20:33:35.050Z,9.40
2023-04-16T20:36:08.558Z,9.30
2023-04-16T20:38:42.469Z,9.30
2023-04-16T20:41:21.489Z,9.30
2023-04-16T20:43:54.707Z,9.30
2023-04-16T20:46:30.406Z,9.30
2023-04-16T20:49:03.357Z,9.20
2023-04-16T20:51:38.430Z,9.20
2023-04-16T20:54:11.614Z,9.20
2023-04-16T20:56:44.981Z,9.20
2023-04-16T20:59:17.723Z,9.20
2023-04-16T21:01:52.434Z,9.20
2023-04-16T21:04:28.202Z,9.20
2023-04-16T21:07:03.326Z,9.20
2023-04-16T21:09:36.543Z,9.20
2023-04-16T21:12:09.811Z,9.20
2023-04-16T21:14:42.635Z,9.20
2023-04-16T21:17:16.631Z,9.20
2023-04-16T21:19:49.711Z,9.10
2023-04-16T21:22:22.999Z,9.20
2023-04-16T21:24:56.433Z,9.20
2023-04-16T21:27:29.535Z,9.20
2023-04-16T21:30:02.376Z,9.20
2023-04-16T21:32:36.138Z,9.20
2023-04-16T21:35:09.787Z,9.10
2023-04-16T21:37:43.082Z,9.10
2023-04-16T21:40:16.078Z,9.10
2023-04-16T21:42:49.592Z,9.10
2023-04-16T21:45:22.337Z,9.20
2023-04-16T21:47:55.693Z,9.10
2023-04-16T21:50:28.788Z,9.20
2023-04-16T21:53:04.639Z,9.10
2023-04-16T21:55:37.935Z,9.10
2023-04-16T21:58:11.075Z,9.10
2023-04-16T22:00:43.985Z,9.00
2023-04-16T22:03:18.667Z,9.00
2023-04-16T22:05:52.081Z,8.90
2023-04-16T22:08:27.438Z,8.90
2023-04-16T22:11:02.129Z,8.90
2023-04-16T22:13:36.988Z,8.90
2023-04-16T22:16:11.654Z,8.80
2023-04-16T22:18:46.550Z,8.80
2023-04-16T22:21:19.735Z,8.70
2023-04-16T22:23:53.447Z,8.70
2023-04-16T22:26:26.599Z,8.70
2023-04-16T22:28:59.837Z,8.70
2023-04-16T22:31:33.158Z,8.60
2023-04-16T22:34:06.369Z,8.70
2023-04-16T22:36:39.602Z,8.60
2023-04-16T22:39:13.553Z,8.70
2023-04-16T22:41:46.663Z,8.60
2023-04-16T22:44:19.935Z,8.60
2023-04-16T22:46:52.795Z,8.60
2023-04-16T22:49:26.794Z,8.60
2023-04-16T22:52:03.007Z,8.60
2023-04-16T22:54:36.653Z,8.60
2023-04-16T22:57:09.655Z,8.60
2023-04-16T22:59:42.836Z,8.60
2023-04-16T23:02:15.769Z,8.60
2023-04-16T23:04:49.520Z,8.60
2023-04-16T23:07:22.718Z,8.50
2023-04-16T23:09:56.027Z,8.60
2023-04-16T23:12:29.134Z,8.50
2023-04-16T23:15:02.193Z,8.50
2023-04-16T23:17:35.316Z,8.60
2023-04-16T23:20:10.178Z,8.60
2023-04-16T23:22:43.121Z,8.60
2023-04-16T23:25:18.224Z,8.50
2023-04-16T23:27:51.226Z,8.50
2023-04-16T23:30:24.620Z,8.50
2023-04-16T23:32:57.753Z,8.40
2023-04-16T23:35:31.112Z,8.40
2023-04-16T23:38:03.892Z,8.40
2023-04-16T23:40:36.975Z,8.40
2023-04-16T23:43:10.316Z,8.40
2023-04-16T23:45:43.817Z,8.40
2023-04-16T23:48:17.185Z,8.40
2023-04-16T23:50:50.554Z,8.40
2023-04-16T23:53:23.602Z,8.40
2023-04-16T23:55:56.948Z,8.30
2023-04-16T23:58:29.746Z,8.30
